| time (UTC) | temp F | wind direction | speed knots | gust knots | rain 1hr in | rain 24hr in | rain mn in | humidity % | barometer mb |
| 20260906083047 | 69 | 280 | 0.0 | 0.0 | 0.00 | 0.01 | 0.00 | 1 | 1012.2 |
| 20260906081543 | 69 | 280 | 0.0 | 0.0 | 0.00 | 0.01 | 0.00 | 1 | 1012.3 |
| 20260906080040 | 69 | 280 | 0.0 | 0.0 | 0.00 | 0.01 | 0.00 | 1 | 1012.2 |
| 20260906074543 | 69 | 280 | 0.0 | 0.0 | 0.00 | 0.01 | 0.00 | 1 | 1012.1 |
| 20260906073029 | 70 | 280 | 0.0 | 0.0 | 0.00 | 0.01 | 0.00 | 1 | 1012.3 |
| 20260906071524 | 70 | 280 | 0.0 | 0.0 | 0.00 | 0.01 | 0.00 | 1 | 1012.5 |
| 20260906070021 | 70 | 280 | 0.0 | 0.0 | 0.00 | 0.01 | 0.00 | 1 | 1012.5 |
| 20260906064516 | 70 | 280 | 0.0 | 0.0 | 0.00 | 0.01 | 0.00 | 1 | 1012.3 |
| 20260906063012 | 70 | 280 | 0.0 | 0.0 | 0.00 | 0.01 | 0.00 | 1 | 1012.4 |
| 20260906061508 | 70 | 280 | 0.0 | 0.0 | 0.00 | 0.01 | 0.00 | 1 | 1012.6 |
| 20260906060007 | 70 | 280 | 0.0 | 0.0 | 0.00 | 0.01 | 0.00 | 1 | 1012.7 |
| 20260906054604 | 71 | 280 | 0.0 | 0.0 | 0.00 | 0.01 | 0.00 | 1 | 1012.9 |
| 20260906053107 | 71 | 280 | 0.0 | 0.0 | 0.00 | 0.01 | 0.00 | 1 | 1012.9 |
| 20260906051550 | 71 | 280 | 0.0 | 0.0 | 0.00 | 0.01 | 0.00 | 1 | 1013.1 |
| 20260906050046 | 71 | 280 | 0.0 | 0.0 | 0.00 | 0.01 | 0.00 | 1 | 1013.2 |
| 20260906044541 | 71 | 280 | 0.0 | 0.0 | 0.00 | 0.01 | 0.00 | 1 | 1013.3 |
| 20260906043038 | 71 | 280 | 0.0 | 0.0 | 0.00 | 0.01 | 0.00 | 1 | 1012.9 |
| 20260906041545 | 72 | 280 | 0.0 | 0.0 | 0.00 | 0.01 | 0.00 | 1 | 1012.9 |
| 20260906040028 | 72 | 280 | 0.0 | 0.0 | 0.00 | 0.01 | 0.00 | 1 | 1013.0 |
| 20260906034524 | 72 | 280 | 0.0 | 0.0 | 0.00 | 0.01 | 0.01 | 1 | 1013.0 |
| 20260906033020 | 72 | 280 | 0.0 | 0.0 | 0.00 | 0.01 | 0.01 | 1 | 1013.2 |
| 20260906031515 | 72 | 280 | 0.0 | 0.0 | 0.00 | 0.01 | 0.01 | 1 | 1013.4 |
| 20260906030011 | 73 | 280 | 0.0 | 0.0 | 0.00 | 0.01 | 0.01 | 1 | 1013.2 |
| 20260906024506 | 73 | 280 | 0.0 | 0.0 | 0.00 | 0.01 | 0.01 | 1 | 1013.0 |
| 20260906023002 | 73 | 280 | 0.0 | 0.0 | 0.00 | 0.01 | 0.01 | 1 | 1013.2 |
| 20260906021559 | 74 | 280 | 0.0 | 0.0 | 0.00 | 0.01 | 0.01 | 1 | 1013.1 |
| 20260906020054 | 74 | 280 | 0.0 | 0.0 | 0.00 | 0.01 | 0.01 | 1 | 1013.0 |
| 20260906014552 | 75 | 280 | 0.0 | 0.0 | 0.00 | 0.01 | 0.01 | 1 | 1012.7 |
| 20260906013045 | 75 | 280 | 0.0 | 0.0 | 0.00 | 0.01 | 0.01 | 1 | 1012.6 |
| 20260906011553 | 76 | 280 | 0.0 | 0.0 | 0.00 | 0.01 | 0.01 | 1 | 1012.5 |
| 20260906010058 | 76 | 280 | 0.0 | 0.0 | 0.00 | 0.01 | 0.01 | 4 | 1012.3 |
| 20260906004532 | 77 | 280 | 0.0 | 0.0 | 0.00 | 0.01 | 0.01 | 14 | 1012.2 |
| 20260906003028 | 78 | 280 | 0.0 | 0.0 | 0.00 | 0.01 | 0.01 | 28 | 1012.0 |
| 20260906001533 | 79 | 280 | 0.0 | 0.0 | 0.00 | 0.01 | 0.01 | 30 | 1011.8 |
| 20260906000019 | 79 | 280 | 0.0 | 0.0 | 0.00 | 0.01 | 0.01 | 35 | 1011.7 |
| 20260905234515 | 80 | 280 | 0.0 | 0.0 | 0.00 | 0.02 | 0.01 | 47 | 1011.4 |
| 20260905233012 | 81 | 280 | 0.0 | 0.0 | 0.00 | 0.02 | 0.01 | 49 | 1011.5 |
| 20260905230001 | 84 | 280 | 0.0 | 0.0 | 0.00 | 0.02 | 0.01 | 53 | 1011.5 |
| 20260905224559 | 85 | 280 | 0.0 | 0.0 | 0.00 | 0.02 | 0.01 | 59 | 1011.6 |
| 20260905223052 | 86 | 280 | 0.0 | 0.0 | 0.00 | 0.02 | 0.01 | 61 | 1011.8 |
| 20260905221553 | 87 | 280 | 0.0 | 0.0 | 0.00 | 0.02 | 0.01 | 60 | 1011.9 |
| 20260905220046 | 88 | 280 | 0.0 | 0.0 | 0.00 | 0.02 | 0.01 | 59 | 1011.8 |
| 20260905214539 | 87 | 280 | 0.0 | 0.0 | 0.00 | 0.02 | 0.01 | 59 | 1011.8 |
| 20260905213040 | 87 | 280 | 0.0 | 0.0 | 0.00 | 0.02 | 0.01 | 60 | 1011.8 |
| 20260905211540 | 87 | 280 | 0.0 | 0.0 | 0.00 | 0.02 | 0.01 | 59 | 1011.5 |
| 20260905210026 | 87 | 280 | 0.0 | 0.0 | 0.00 | 0.02 | 0.01 | 59 | 1011.7 |
| 20260905204525 | 86 | 280 | 0.0 | 0.0 | 0.00 | 0.02 | 0.01 | 58 | 1011.8 |
| 20260905203033 | 85 | 270 | 0.0 | 0.0 | 0.00 | 0.02 | 0.01 | 60 | 1011.8 |
| 20260905201518 | 84 | 270 | 0.0 | 0.0 | 0.00 | 0.02 | 0.01 | 58 | 1012.0 |
| 20260905200009 | 84 | 269 | 0.0 | 0.0 | 0.00 | 0.02 | 0.01 | 59 | 1012.1 |
| 20260905194504 | 83 | 269 | 0.0 | 0.0 | 0.00 | 0.02 | 0.01 | 58 | 1012.2 |
| 20260905193059 | 83 | 269 | 0.0 | 0.9 | 0.00 | 0.02 | 0.01 | 57 | 1012.7 |
| 20260905191555 | 81 | 269 | 0.0 | 0.0 | 0.00 | 0.02 | 0.01 | 54 | 1012.8 |
| 20260905190054 | 80 | 269 | 0.0 | 0.0 | 0.00 | 0.02 | 0.01 | 51 | 1013.1 |
| 20260905184549 | 78 | 269 | 0.0 | 0.0 | 0.00 | 0.02 | 0.01 | 46 | 1013.5 |
| 20260905183058 | 76 | 269 | 0.0 | 0.0 | 0.00 | 0.02 | 0.01 | 19 | 1013.9 |
| 20260905181539 | 73 | 269 | 0.0 | 0.0 | 0.00 | 0.02 | 0.01 | 1 | 1014.1 |
| 20260905180034 | 71 | 269 | 0.0 | 0.0 | 0.00 | 0.02 | 0.01 | 1 | 1014.8 |
| 20260905174529 | 71 | 269 | 0.0 | 0.0 | 0.00 | 0.02 | 0.01 | 1 | 1015.3 |
| 20260905173025 | 71 | 269 | 0.0 | 0.0 | 0.00 | 0.02 | 0.01 | 1 | 1015.5 |
| 20260905171521 | 72 | 269 | 0.0 | 0.0 | 0.01 | 0.02 | 0.01 | 1 | 1015.7 |
| 20260905170017 | 72 | 269 | 0.0 | 0.0 | 0.01 | 0.02 | 0.01 | 1 | 1015.5 |
| 20260905164514 | 73 | 269 | 0.0 | 0.0 | 0.01 | 0.02 | 0.01 | 1 | 1015.5 |
| 20260905163007 | 74 | 282 | 0.0 | 0.0 | 0.01 | 0.02 | 0.01 | 14 | 1015.6 |
| 20260905161506 | 77 | 282 | 0.0 | 5.2 | 0.00 | 0.01 | 0.00 | 39 | 1015.5 |
| 20260905160059 | 83 | 289 | 0.9 | 8.7 | 0.00 | 0.01 | 0.00 | 45 | 1015.0 |
| 20260905154554 | 85 | 280 | 0.0 | 0.0 | 0.00 | 0.01 | 0.00 | 40 | 1014.4 |
| 20260905153049 | 85 | 280 | 0.0 | 0.0 | 0.00 | 0.01 | 0.00 | 43 | 1014.8 |
| 20260905151549 | 84 | 280 | 0.0 | 0.0 | 0.00 | 0.01 | 0.00 | 29 | 1014.6 |
| 20260905150043 | 83 | 280 | 0.0 | 0.0 | 0.00 | 0.01 | 0.00 | 36 | 1014.5 |
| 20260905144538 | 84 | 280 | 0.0 | 0.0 | 0.00 | 0.01 | 0.00 | 41 | 1014.3 |
| 20260905143031 | 82 | 280 | 0.0 | 0.0 | 0.00 | 0.01 | 0.00 | 29 | 1014.4 |
| 20260905141528 | 81 | 280 | 0.0 | 0.0 | 0.00 | 0.01 | 0.00 | 16 | 1014.6 |
| 20260905140024 | 81 | 280 | 0.0 | 0.0 | 0.00 | 0.01 | 0.00 | 21 | 1014.8 |
| 20260905134527 | 80 | 280 | 0.0 | 0.0 | 0.00 | 0.01 | 0.00 | 3 | 1014.7 |
| 20260905133014 | 77 | 280 | 0.0 | 0.0 | 0.00 | 0.01 | 0.00 | 1 | 1014.8 |
| 20260905131513 | 73 | 280 | 0.0 | 0.0 | 0.00 | 0.01 | 0.00 | 1 | 1014.9 |
| 20260905130007 | 71 | 280 | 0.0 | 0.0 | 0.00 | 0.01 | 0.00 | 1 | 1015.0 |
| 20260905124506 | 70 | 280 | 0.0 | 0.0 | 0.00 | 0.01 | 0.00 | 1 | 1015.2 |
| 20260905123104 | 69 | 280 | 0.0 | 0.0 | 0.00 | 0.01 | 0.00 | 1 | 1015.2 |
| 20260905121554 | 69 | 280 | 0.0 | 0.0 | 0.00 | 0.01 | 0.00 | 1 | 1015.0 |
| 20260905120049 | 69 | 280 | 0.0 | 0.0 | 0.00 | 0.01 | 0.00 | 1 | 1014.9 |
| 20260905114547 | 69 | 280 | 0.0 | 0.0 | 0.00 | 0.01 | 0.00 | 1 | 1014.8 |
| 20260905113042 | 69 | 280 | 0.0 | 0.0 | 0.00 | 0.01 | 0.00 | 1 | 1014.7 |
| 20260905111537 | 68 | 280 | 0.0 | 0.0 | 0.00 | 0.01 | 0.00 | 1 | 1014.6 |
| 20260905110033 | 69 | 280 | 0.0 | 0.0 | 0.00 | 0.01 | 0.00 | 1 | 1014.4 |
| 20260905104527 | 69 | 280 | 0.0 | 0.0 | 0.00 | 0.01 | 0.00 | 1 | 1014.2 |
| 20260905103024 | 69 | 280 | 0.0 | 0.0 | 0.00 | 0.01 | 0.00 | 1 | 1014.1 |
| 20260905101518 | 69 | 280 | 0.0 | 0.0 | 0.00 | 0.01 | 0.00 | 1 | 1014.0 |
| 20260905100013 | 69 | 280 | 0.0 | 0.0 | 0.00 | 0.01 | 0.00 | 1 | 1013.9 |
| 20260905094510 | 69 | 280 | 0.0 | 0.0 | 0.00 | 0.01 | 0.00 | 1 | 1013.9 |
| 20260905093004 | 69 | 280 | 0.0 | 0.0 | 0.00 | 0.01 | 0.00 | 1 | 1013.9 |
| 20260905091501 | 69 | 280 | 0.0 | 0.0 | 0.00 | 0.01 | 0.00 | 1 | 1013.5 |
| 20260905090131 | 70 | 280 | 0.0 | 0.0 | 0.00 | 0.01 | 0.00 | 1 | 1013.6 |
| 20260905084552 | 70 | 280 | 0.0 | 0.0 | 0.00 | 0.01 | 0.00 | 1 | 1013.7 |